Time;durP1;ratioP1;P1;durP2;ratioP2;P2;SDS_P1;SDS_P2;PMS_P1;PMS_P2;Temp;Humidity;BMP_temperature;BMP_pressure;BME280_temperature;BME280_humidity;BME280_pressure;Samples;Min_cycle;Max_cycle;Signal;HPM_P1;HPM_P2
2021/08/16 00:02:06;;;;;;;8.35;6.28;;;16.20;99.90;;;;;;5052727;28;20052;-68
2021/08/16 00:04:32;;;;;;;9.63;6.30;;;16.20;99.90;;;;;;5053252;28;20049;-68
2021/08/16 00:06:59;;;;;;;10.20;6.22;;;16.20;99.90;;;;;;5053224;28;20099;-68
2021/08/16 00:09:26;;;;;;;6.70;6.03;;;16.10;99.90;;;;;;5051916;28;20053;-68
2021/08/16 00:11:53;;;;;;;9.98;6.72;;;16.10;99.90;;;;;;5052128;28;20107;-68
2021/08/16 00:14:20;;;;;;;7.72;6.13;;;16.10;99.90;;;;;;5048750;28;20087;-68
2021/08/16 00:16:48;;;;;;;6.97;5.85;;;16.10;99.90;;;;;;5052501;28;20501;-68
2021/08/16 00:19:14;;;;;;;8.75;6.10;;;16.20;99.90;;;;;;5052085;28;20037;-68
2021/08/16 00:21:41;;;;;;;6.97;5.82;;;16.20;99.90;;;;;;5052363;28;20095;-67
2021/08/16 00:24:07;;;;;;;7.03;5.88;;;16.20;99.90;;;;;;5038929;28;20053;-66
2021/08/16 00:26:34;;;;;;;10.77;5.97;;;16.20;99.90;;;;;;5032759;28;20387;-66
2021/08/16 00:29:01;;;;;;;6.22;5.45;;;16.20;99.90;;;;;;5049974;28;20079;-67
2021/08/16 00:31:28;;;;;;;9.77;6.72;;;16.30;99.90;;;;;;5052505;28;20044;-67
2021/08/16 00:33:56;;;;;;;8.70;6.15;;;16.20;99.90;;;;;;5052732;28;20067;-67
2021/08/16 00:36:23;;;;;;;8.45;6.05;;;16.20;99.90;;;;;;5052009;28;20080;-67
2021/08/16 00:38:50;;;;;;;9.45;6.80;;;16.10;99.90;;;;;;5051789;28;20048;-68
2021/08/16 00:41:18;;;;;;;9.93;5.93;;;15.90;99.90;;;;;;5063887;28;20049;-70
2021/08/16 00:43:45;;;;;;;7.15;5.35;;;15.80;99.90;;;;;;5064383;28;20036;-78
2021/08/16 00:46:13;;;;;;;8.15;5.78;;;15.80;99.90;;;;;;5043149;28;20552;-78
2021/08/16 00:48:41;;;;;;;9.57;5.90;;;15.80;99.90;;;;;;5050656;28;20128;-78
2021/08/16 00:51:10;;;;;;;6.97;5.45;;;15.90;99.90;;;;;;5051067;28;20041;-78
2021/08/16 00:53:37;;;;;;;8.88;5.97;;;15.90;99.90;;;;;;5034856;28;20103;-78
2021/08/16 00:56:04;;;;;;;8.70;6.40;;;15.90;99.90;;;;;;5035362;28;20103;-78
2021/08/16 00:58:32;;;;;;;11.18;5.60;;;16.00;99.90;;;;;;5046416;28;20048;-78
2021/08/16 01:00:59;;;;;;;5.30;4.70;;;16.00;99.90;;;;;;5056629;28;20045;-78
2021/08/16 01:03:27;;;;;;;7.00;6.05;;;15.90;99.90;;;;;;5059012;28;20102;-79
2021/08/16 01:05:54;;;;;;;6.75;4.60;;;15.80;99.90;;;;;;5057825;28;20045;-78
2021/08/16 01:08:24;;;;;;;6.78;5.60;;;15.70;99.90;;;;;;5047393;28;20068;-77
2021/08/16 01:10:50;;;;;;;11.65;6.10;;;15.60;99.90;;;;;;5033089;28;20041;-77
2021/08/16 01:13:18;;;;;;;8.68;6.35;;;15.50;99.90;;;;;;5056261;28;20044;-77
2021/08/16 01:15:54;;;;;;;6.43;4.57;;;15.50;99.90;;;;;;5056082;28;20041;-78
2021/08/16 01:18:28;;;;;;;10.60;5.30;;;15.50;99.90;;;;;;5054948;28;20045;-77
2021/08/16 01:20:56;;;;;;;7.55;4.97;;;15.60;99.90;;;;;;5053851;28;20045;-78
2021/08/16 01:23:24;;;;;;;6.82;5.20;;;15.60;99.90;;;;;;5053923;28;20049;-77
2021/08/16 01:25:51;;;;;;;5.97;4.82;;;15.60;99.90;;;;;;5053893;28;20045;-76
2021/08/16 01:28:20;;;;;;;6.82;4.88;;;15.70;99.90;;;;;;5053674;28;20049;-77
2021/08/16 01:30:48;;;;;;;9.18;5.65;;;15.70;99.90;;;;;;5052977;28;20041;-77
2021/08/16 01:33:14;;;;;;;7.38;5.28;;;15.80;99.90;;;;;;5056163;28;20103;-77
2021/08/16 01:35:41;;;;;;;5.95;4.85;;;15.80;99.90;;;;;;5058071;28;20041;-78
2021/08/16 01:38:07;;;;;;;5.68;4.63;;;15.80;99.90;;;;;;5058664;28;20044;-78
2021/08/16 01:40:34;;;;;;;7.05;4.47;;;15.80;99.90;;;;;;5053242;28;20041;-77
2021/08/16 01:43:01;;;;;;;5.95;5.22;;;15.70;99.90;;;;;;5055549;28;20041;-78
2021/08/16 01:45:30;;;;;;;9.00;5.97;;;15.60;99.90;;;;;;5055412;28;20053;-78
2021/08/16 01:47:56;;;;;;;7.78;4.85;;;15.50;99.90;;;;;;5055252;28;20044;-78
2021/08/16 01:50:23;;;;;;;7.20;4.72;;;15.40;99.90;;;;;;5055811;28;20041;-78
2021/08/16 01:52:50;;;;;;;6.85;5.63;;;15.40;99.90;;;;;;5056860;28;20045;-78
2021/08/16 01:55:17;;;;;;;6.88;5.13;;;15.40;99.90;;;;;;5057783;28;20053;-78
2021/08/16 01:57:44;;;;;;;6.45;5.03;;;15.30;99.90;;;;;;5057965;28;20037;-79
2021/08/16 02:00:12;;;;;;;5.70;5.10;;;15.30;99.90;;;;;;5058756;28;20048;-78
2021/08/16 02:02:39;;;;;;;8.00;4.95;;;15.30;99.90;;;;;;5059266;28;20041;-78
2021/08/16 02:05:07;;;;;;;9.45;5.70;;;15.30;99.90;;;;;;5062700;28;20075;-78
2021/08/16 02:07:34;;;;;;;5.82;5.00;;;15.20;99.90;;;;;;5060372;28;20045;-77
2021/08/16 02:10:00;;;;;;;7.07;5.57;;;15.20;99.90;;;;;;5059024;28;20045;-77
2021/08/16 02:12:27;;;;;;;8.32;5.40;;;15.20;99.90;;;;;;5058435;28;20497;-77
2021/08/16 02:14:54;;;;;;;8.52;5.78;;;15.10;99.90;;;;;;5046693;28;20092;-77
2021/08/16 02:17:20;;;;;;;9.18;6.32;;;15.10;99.90;;;;;;5047567;28;20107;-77
2021/08/16 02:19:48;;;;;;;7.80;5.85;;;15.10;99.90;;;;;;5040622;28;20076;-78
2021/08/16 02:22:15;;;;;;;9.55;5.50;;;15.10;99.90;;;;;;5060700;28;20041;-77
2021/08/16 02:24:42;;;;;;;7.00;4.60;;;15.10;99.90;;;;;;5059135;28;20045;-77
2021/08/16 02:27:09;;;;;;;6.22;5.07;;;15.10;99.90;;;;;;5056196;28;20510;-76
2021/08/16 02:29:36;;;;;;;7.30;5.13;;;15.10;99.90;;;;;;5055904;28;20045;-77
2021/08/16 02:32:03;;;;;;;7.45;5.15;;;15.20;99.90;;;;;;5056480;28;20041;-77
2021/08/16 02:34:30;;;;;;;8.13;5.72;;;15.30;99.90;;;;;;5056105;28;20040;-76
2021/08/16 02:36:58;;;;;;;8.13;5.20;;;15.30;99.90;;;;;;5057903;28;20049;-77
2021/08/16 02:39:24;;;;;;;7.22;5.35;;;15.30;99.90;;;;;;5058057;28;20041;-78
2021/08/16 02:41:51;;;;;;;8.35;5.93;;;15.20;99.90;;;;;;5054836;28;20041;-78
2021/08/16 02:44:18;;;;;;;6.75;6.05;;;15.20;99.90;;;;;;5048610;28;20081;-78
2021/08/16 02:46:46;;;;;;;7.95;5.65;;;15.20;99.90;;;;;;5057313;28;20097;-78
2021/08/16 02:49:13;;;;;;;6.80;5.28;;;15.20;99.90;;;;;;5057877;28;20379;-78
2021/08/16 02:51:40;;;;;;;7.38;5.93;;;15.20;99.90;;;;;;5057620;28;20045;-77
2021/08/16 02:54:08;;;;;;;7.10;6.03;;;15.20;99.90;;;;;;5058180;28;20050;-77
2021/08/16 02:56:34;;;;;;;7.63;5.40;;;15.20;99.90;;;;;;5059620;28;20048;-78
2021/08/16 02:59:01;;;;;;;8.02;5.32;;;15.20;99.90;;;;;;5040119;28;20136;-78
2021/08/16 03:01:28;;;;;;;7.78;5.25;;;15.20;99.90;;;;;;5061314;28;20057;-78
2021/08/16 03:03:54;;;;;;;8.50;5.38;;;15.20;99.90;;;;;;5061748;28;20449;-78
2021/08/16 03:06:22;;;;;;;8.02;5.40;;;15.20;99.90;;;;;;5061125;28;20049;-78
2021/08/16 03:08:49;;;;;;;7.20;5.60;;;15.20;99.90;;;;;;5059295;28;20045;-77
2021/08/16 03:11:19;;;;;;;9.05;6.22;;;15.20;99.90;;;;;;5059552;28;20102;-78
2021/08/16 03:13:46;;;;;;;7.53;5.35;;;15.10;99.90;;;;;;5058503;28;20076;-79
2021/08/16 03:16:13;;;;;;;6.95;5.38;;;15.10;99.90;;;;;;5058505;28;20052;-77
2021/08/16 03:18:40;;;;;;;8.57;5.35;;;15.20;99.90;;;;;;5057586;28;20094;-78
2021/08/16 03:21:07;;;;;;;7.55;5.90;;;15.30;99.90;;;;;;5057770;28;20045;-78
2021/08/16 03:23:34;;;;;;;9.00;6.13;;;15.30;99.90;;;;;;5057439;28;20425;-78
2021/08/16 03:26:01;;;;;;;6.95;5.05;;;15.30;99.90;;;;;;5057294;28;20072;-78
2021/08/16 03:28:29;;;;;;;7.63;5.25;;;15.30;99.90;;;;;;5057093;28;20053;-78
2021/08/16 03:30:56;;;;;;;8.02;6.57;;;15.20;99.90;;;;;;5056229;28;20501;-78
2021/08/16 03:33:22;;;;;;;5.85;5.35;;;15.10;99.90;;;;;;5048391;28;20045;-78
2021/08/16 03:35:49;;;;;;;13.32;7.38;;;15.20;99.90;;;;;;5053598;28;20394;-71
2021/08/16 03:38:16;;;;;;;23.25;13.90;;;15.10;99.90;;;;;;5052299;28;20091;-70
2021/08/16 03:40:43;;;;;;;11.90;9.00;;;15.10;99.90;;;;;;5048009;28;20041;-68
2021/08/16 03:43:10;;;;;;;9.43;8.00;;;15.20;99.90;;;;;;5052106;28;20048;-69
2021/08/16 03:45:38;;;;;;;24.52;15.60;;;15.20;99.90;;;;;;5034815;28;20054;-70
2021/08/16 03:48:06;;;;;;;10.82;7.43;;;15.20;99.90;;;;;;5036302;28;20067;-67
2021/08/16 03:50:32;;;;;;;7.07;6.28;;;15.30;99.90;;;;;;5051972;28;20052;-68
2021/08/16 03:52:59;;;;;;;11.73;7.95;;;15.30;99.90;;;;;;5045701;28;20053;-69
2021/08/16 03:55:26;;;;;;;11.55;8.65;;;15.30;99.90;;;;;;5053195;28;20045;-67
2021/08/16 03:57:52;;;;;;;8.05;6.93;;;15.40;99.90;;;;;;5052537;28;20045;-68
2021/08/16 04:00:19;;;;;;;9.63;6.82;;;15.50;99.90;;;;;;5032624;28;20498;-68
2021/08/16 04:02:47;;;;;;;7.32;6.57;;;15.50;99.90;;;;;;5033421;28;20049;-72
2021/08/16 04:05:14;;;;;;;7.97;6.60;;;15.50;99.90;;;;;;5033546;28;20505;-74
2021/08/16 04:07:43;;;;;;;12.65;8.27;;;15.40;99.90;;;;;;5052346;28;20132;-70
2021/08/16 04:10:12;;;;;;;18.15;10.82;;;15.50;99.90;;;;;;5052808;28;20807;-75
2021/08/16 04:12:39;;;;;;;7.53;5.93;;;15.40;99.90;;;;;;5053392;28;20067;-73
2021/08/16 04:15:09;;;;;;;8.45;6.13;;;15.50;99.90;;;;;;5050696;28;20053;-73
2021/08/16 04:17:35;;;;;;;13.18;11.02;;;15.50;99.90;;;;;;5032650;28;20046;-71
2021/08/16 04:20:05;;;;;;;9.50;7.07;;;15.50;99.90;;;;;;5036805;28;20037;-67
2021/08/16 04:22:32;;;;;;;15.82;9.00;;;15.50;99.90;;;;;;5052818;28;20114;-71
2021/08/16 04:24:59;;;;;;;10.88;7.82;;;15.40;99.90;;;;;;5052934;28;20044;-73
2021/08/16 04:27:27;;;;;;;7.20;5.78;;;15.50;99.90;;;;;;5053016;28;20045;-72
2021/08/16 04:29:53;;;;;;;9.85;6.97;;;15.60;99.90;;;;;;5051873;28;20045;-72
2021/08/16 04:32:20;;;;;;;33.53;20.45;;;15.60;99.90;;;;;;5039962;28;20053;-75
2021/08/16 04:34:47;;;;;;;15.35;10.27;;;15.60;99.90;;;;;;5038690;28;20041;-76
2021/08/16 04:37:15;;;;;;;44.20;25.55;;;15.80;99.90;;;;;;5052523;28;20045;-74
2021/08/16 04:39:41;;;;;;;9.98;6.43;;;15.90;99.90;;;;;;5036329;28;20394;-72
2021/08/16 04:42:08;;;;;;;6.45;5.80;;;16.20;99.90;;;;;;5043457;28;20045;-73
2021/08/16 04:44:35;;;;;;;16.25;11.38;;;16.50;99.90;;;;;;5049933;28;20415;-70
2021/08/16 04:47:01;;;;;;;21.55;13.40;;;16.70;99.90;;;;;;5052383;28;20398;-70
2021/08/16 04:49:28;;;;;;;12.77;9.07;;;16.80;99.90;;;;;;5051763;28;20109;-70
2021/08/16 04:51:55;;;;;;;7.78;5.50;;;16.80;99.90;;;;;;5052149;28;20064;-69
2021/08/16 04:54:23;;;;;;;8.60;6.93;;;17.00;99.90;;;;;;5052395;28;20045;-70
2021/08/16 04:56:50;;;;;;;11.68;8.48;;;17.00;99.90;;;;;;5051854;28;20051;-71
2021/08/16 04:59:16;;;;;;;11.55;9.23;;;17.00;99.90;;;;;;5039523;28;20548;-73
2021/08/16 05:01:44;;;;;;;5.55;4.97;;;17.00;99.90;;;;;;5032586;28;20046;-73
2021/08/16 05:04:11;;;;;;;16.73;9.75;;;17.10;99.90;;;;;;5032056;28;20124;-73
2021/08/16 05:06:42;;;;;;;7.70;5.85;;;17.20;99.90;;;;;;5050202;28;20115;-69
2021/08/16 05:09:08;;;;;;;6.95;5.80;;;17.50;99.90;;;;;;5050197;28;20049;-71
2021/08/16 05:11:37;;;;;;;5.13;4.63;;;17.70;99.90;;;;;;5051260;28;20071;-74
2021/08/16 05:14:04;;;;;;;6.43;5.82;;;17.80;99.90;;;;;;5052353;28;20052;-74
2021/08/16 05:16:31;;;;;;;6.05;5.40;;;17.90;99.90;;;;;;5051534;28;20053;-67
2021/08/16 05:18:57;;;;;;;12.77;5.32;;;18.00;99.90;;;;;;5051192;28;20510;-65
2021/08/16 05:21:24;;;;;;;6.53;3.83;;;18.20;99.90;;;;;;5042552;28;20091;-66
2021/08/16 05:23:51;;;;;;;7.63;4.90;;;18.30;99.90;;;;;;5051810;28;20045;-66
2021/08/16 05:26:18;;;;;;;36.63;21.45;;;18.40;99.90;;;;;;5051795;28;20324;-68
2021/08/16 05:28:46;;;;;;;5.40;3.70;;;18.50;99.90;;;;;;5037645;28;20084;-77
2021/08/16 05:31:12;;;;;;;5.00;3.50;;;18.60;99.90;;;;;;5047048;28;20045;-70
2021/08/16 05:33:39;;;;;;;11.93;7.72;;;18.70;99.90;;;;;;5051836;28;20122;-72
2021/08/16 05:36:06;;;;;;;4.50;3.20;;;18.90;99.90;;;;;;5048219;28;20053;-71
2021/08/16 05:38:33;;;;;;;5.20;3.40;;;19.20;99.90;;;;;;5050420;28;20052;-74
2021/08/16 05:41:01;;;;;;;5.15;3.03;;;19.30;99.90;;;;;;5052151;28;20068;-75
2021/08/16 05:43:28;;;;;;;4.90;2.80;;;19.40;99.90;;;;;;5047670;28;20086;-70
2021/08/16 05:45:56;;;;;;;8.32;5.00;;;19.60;99.90;;;;;;5031884;28;20053;-67
2021/08/16 05:48:23;;;;;;;4.53;3.40;;;19.60;99.90;;;;;;5032989;28;20049;-67
2021/08/16 05:50:49;;;;;;;3.55;3.25;;;19.80;99.90;;;;;;5051330;28;20551;-69
2021/08/16 05:53:16;;;;;;;3.50;3.03;;;19.90;99.90;;;;;;5052281;28;20080;-75
2021/08/16 05:55:44;;;;;;;5.72;3.53;;;20.00;99.90;;;;;;5051929;28;20052;-71
2021/08/16 05:58:11;;;;;;;3.15;2.85;;;20.30;99.90;;;;;;4939366;28;20057;-78
2021/08/16 06:00:38;;;;;;;4.32;2.70;;;20.50;99.90;;;;;;5029943;28;20515;-76
2021/08/16 06:03:07;;;;;;;6.55;4.72;;;20.70;99.90;;;;;;5048949;28;20526;-72
2021/08/16 06:05:34;;;;;;;4.80;3.22;;;21.10;99.90;;;;;;5050926;28;20060;-71
2021/08/16 06:08:01;;;;;;;4.13;3.42;;;21.40;99.90;;;;;;5051535;28;20053;-72
2021/08/16 06:10:28;;;;;;;5.32;2.75;;;21.60;99.90;;;;;;5050843;28;20132;-71
2021/08/16 06:12:54;;;;;;;3.08;2.75;;;21.90;99.90;;;;;;5051266;28;20080;-72
2021/08/16 06:15:22;;;;;;;9.05;6.22;;;22.10;99.90;;;;;;5051544;28;20053;-71
2021/08/16 06:17:49;;;;;;;5.72;4.70;;;22.30;99.90;;;;;;5051426;28;20085;-71
2021/08/16 06:20:18;;;;;;;4.78;4.00;;;22.60;99.90;;;;;;5045369;28;20077;-72
2021/08/16 06:22:45;;;;;;;4.40;3.38;;;22.70;99.90;;;;;;5038431;28;20424;-68
2021/08/16 06:25:12;;;;;;;7.70;4.07;;;22.70;99.90;;;;;;5050933;28;20049;-68
2021/08/16 06:27:39;;;;;;;7.75;3.45;;;22.60;99.90;;;;;;5051006;28;20083;-68
2021/08/16 06:30:07;;;;;;;9.27;5.53;;;22.50;99.90;;;;;;5050548;28;20087;-68
2021/08/16 06:32:35;;;;;;;4.75;2.88;;;22.40;99.90;;;;;;5051165;28;20049;-68
2021/08/16 06:35:02;;;;;;;6.60;3.13;;;22.30;99.90;;;;;;5049995;28;20083;-72
2021/08/16 06:37:30;;;;;;;3.83;2.40;;;22.20;99.90;;;;;;5050835;28;20041;-70
2021/08/16 06:39:56;;;;;;;6.28;3.45;;;22.10;99.90;;;;;;5050516;28;20045;-69
2021/08/16 06:42:23;;;;;;;2.97;2.67;;;22.10;99.90;;;;;;5051029;28;20497;-68
2021/08/16 06:44:50;;;;;;;3.42;2.85;;;22.10;99.90;;;;;;5051135;28;20045;-70
2021/08/16 06:47:17;;;;;;;3.92;2.65;;;22.10;99.90;;;;;;5050957;28;20057;-68
2021/08/16 06:49:44;;;;;;;5.63;3.45;;;22.00;99.90;;;;;;5050250;28;20052;-69
2021/08/16 06:52:11;;;;;;;9.90;5.93;;;22.00;99.90;;;;;;5054035;28;20140;-71
2021/08/16 06:54:39;;;;;;;4.72;3.33;;;22.10;99.90;;;;;;5056003;28;20052;-71
2021/08/16 06:57:07;;;;;;;6.13;3.70;;;22.10;99.90;;;;;;5054325;28;20044;-71
2021/08/16 06:59:34;;;;;;;7.07;4.28;;;22.20;99.90;;;;;;5053805;28;20068;-71
2021/08/16 07:02:02;;;;;;;5.20;3.47;;;22.20;99.90;;;;;;5036110;28;20049;-70
2021/08/16 07:04:29;;;;;;;4.35;2.78;;;22.50;99.90;;;;;;5043803;28;20139;-70
2021/08/16 07:06:56;;;;;;;4.97;3.70;;;22.40;99.90;;;;;;5053823;28;20063;-69
2021/08/16 07:09:23;;;;;;;4.15;3.08;;;22.40;99.90;;;;;;5053797;28;20052;-69
2021/08/16 07:11:51;;;;;;;4.15;3.75;;;22.40;99.90;;;;;;5053967;28;20045;-68
2021/08/16 07:14:19;;;;;;;5.47;3.25;;;22.60;99.90;;;;;;5034579;28;20056;-68
2021/08/16 07:16:46;;;;;;;6.10;3.38;;;22.40;99.90;;;;;;5034532;28;20132;-71
2021/08/16 07:19:13;;;;;;;4.20;2.67;;;22.30;99.90;;;;;;5034003;28;20060;-73
2021/08/16 07:21:40;;;;;;;4.68;3.47;;;22.20;99.90;;;;;;5037371;28;20107;-73
2021/08/16 07:24:08;;;;;;;3.92;2.53;;;22.30;99.90;;;;;;5035039;28;20077;-69
2021/08/16 07:26:34;;;;;;;6.38;2.78;;;22.40;99.90;;;;;;5041335;28;20045;-69
2021/08/16 07:29:02;;;;;;;4.68;3.30;;;22.60;99.90;;;;;;5052928;28;20148;-68
2021/08/16 07:31:29;;;;;;;4.95;2.45;;;22.80;99.90;;;;;;5053525;28;20045;-68
2021/08/16 07:33:56;;;;;;;5.20;2.75;;;23.00;99.90;;;;;;5052187;28;20045;-70
2021/08/16 07:36:22;;;;;;;5.03;2.80;;;23.10;99.90;;;;;;5034367;28;20093;-74
2021/08/16 07:38:49;;;;;;;5.13;2.75;;;23.30;99.90;;;;;;5041687;28;20045;-75
2021/08/16 07:41:16;;;;;;;4.68;2.95;;;23.00;99.90;;;;;;5053965;28;20041;-73
2021/08/16 07:43:42;;;;;;;6.35;3.90;;;22.80;99.90;;;;;;5054114;28;20053;-75
2021/08/16 07:46:12;;;;;;;6.25;3.72;;;22.60;99.90;;;;;;5053881;28;20051;-70
2021/08/16 07:48:38;;;;;;;3.03;2.30;;;22.90;99.90;;;;;;5053064;28;20048;-68
2021/08/16 07:51:05;;;;;;;4.00;2.92;;;23.20;99.90;;;;;;5053484;28;20056;-71
2021/08/16 07:53:32;;;;;;;6.38;4.15;;;23.50;99.90;;;;;;5053740;28;20402;-72
2021/08/16 07:55:58;;;;;;;8.82;3.08;;;23.90;99.90;;;;;;5051808;28;20127;-74
2021/08/16 07:58:27;;;;;;;6.05;2.45;;;24.60;99.90;;;;;;5053303;28;20052;-74
2021/08/16 08:00:53;;;;;;;4.05;2.38;;;24.90;99.90;;;;;;5052828;28;20469;-73
2021/08/16 08:03:21;;;;;;;5.80;2.90;;;24.40;99.90;;;;;;5053055;28;20045;-74
2021/08/16 08:05:48;;;;;;;6.15;3.72;;;24.30;99.90;;;;;;5053664;28;20478;-78
2021/08/16 08:08:14;;;;;;;3.38;2.45;;;24.40;99.90;;;;;;5052972;28;20173;-78
2021/08/16 08:10:41;;;;;;;3.05;2.55;;;24.30;99.90;;;;;;5053460;28;20079;-79
2021/08/16 08:13:08;;;;;;;4.68;2.83;;;23.80;99.90;;;;;;5052711;28;20122;-72
2021/08/16 08:15:34;;;;;;;4.68;2.42;;;23.20;99.90;;;;;;5052019;28;20041;-71
2021/08/16 08:18:02;;;;;;;4.25;2.42;;;23.10;99.90;;;;;;5052111;28;20091;-72
2021/08/16 08:20:30;;;;;;;3.83;2.30;;;22.90;99.90;;;;;;5051764;28;20040;-71
2021/08/16 08:22:57;;;;;;;4.68;2.35;;;23.00;99.90;;;;;;5052266;28;20045;-73
2021/08/16 08:25:25;;;;;;;3.63;2.33;;;23.00;99.90;;;;;;5053573;28;20049;-70
2021/08/16 08:27:52;;;;;;;4.10;2.88;;;23.50;99.90;;;;;;5053785;28;20127;-71
2021/08/16 08:30:19;;;;;;;4.38;3.28;;;23.40;99.90;;;;;;5043320;28;20044;-72
2021/08/16 08:32:52;;;;;;;3.80;2.83;;;23.30;99.90;;;;;;5052062;28;20048;-72
2021/08/16 08:35:20;;;;;;;5.65;3.80;;;23.50;99.90;;;;;;5052115;28;20079;-68
2021/08/16 08:37:48;;;;;;;5.80;3.15;;;24.20;99.90;;;;;;5052083;28;20048;-74
2021/08/16 08:40:15;;;;;;;5.82;3.38;;;24.60;99.90;;;;;;5051395;28;20052;-74
2021/08/16 08:42:48;;;;;;;5.30;3.20;;;24.90;99.90;;;;;;5052270;28;20049;-73
2021/08/16 08:45:15;;;;;;;7.32;3.65;;;25.30;99.40;;;;;;5034569;28;20050;-73
2021/08/16 08:47:42;;;;;;;5.32;2.97;;;25.30;99.60;;;;;;5032627;28;20123;-71
2021/08/16 08:50:09;;;;;;;5.43;3.53;;;25.30;98.90;;;;;;5049386;28;20051;-71
2021/08/16 08:52:36;;;;;;;7.18;3.35;;;25.60;98.70;;;;;;5052117;28;20048;-71
2021/08/16 08:55:05;;;;;;;3.97;2.95;;;26.30;95.00;;;;;;4973989;28;20045;-69
2021/08/16 08:57:32;;;;;;;4.63;3.20;;;27.10;92.40;;;;;;5031695;28;20402;-69
2021/08/16 08:59:58;;;;;;;5.82;3.00;;;26.90;92.80;;;;;;5048465;28;20055;-68
2021/08/16 09:02:25;;;;;;;3.55;2.97;;;27.00;90.10;;;;;;5052154;28;20045;-69
2021/08/16 09:04:53;;;;;;;8.00;3.80;;;26.50;87.90;;;;;;5052126;28;20055;-70
2021/08/16 09:07:31;;;;;;;4.40;3.47;;;27.50;86.50;;;;;;5046480;28;20045;-68
2021/08/16 09:09:58;;;;;;;3.83;2.05;;;27.70;82.30;;;;;;5044764;28;20107;-69
2021/08/16 09:12:30;;;;;;;3.42;2.92;;;27.70;78.10;;;;;;5043168;28;20176;-70
2021/08/16 09:14:57;;;;;;;3.08;2.78;;;27.20;77.10;;;;;;5039102;28;20055;-71
2021/08/16 09:17:32;;;;;;;3.58;2.60;;;26.90;77.70;;;;;;5052193;28;20055;-68
2021/08/16 09:19:59;;;;;;;7.97;3.67;;;26.70;74.30;;;;;;5050948;28;20048;-71
2021/08/16 09:22:30;;;;;;;6.32;4.90;;;26.00;77.00;;;;;;5051771;28;20607;-72
2021/08/16 09:25:00;;;;;;;;;;;26.10;77.10;;;;;;5051679;28;20049;-72
2021/08/16 09:27:29;;;;;;;4.50;3.20;;;25.90;77.60;;;;;;5052825;28;20011;-74
2021/08/16 09:29:55;;;;;;;4.35;3.00;;;26.70;76.70;;;;;;5052056;28;20049;-72
2021/08/16 09:32:32;;;;;;;5.22;3.00;;;26.70;74.30;;;;;;5052270;28;20049;-74
2021/08/16 09:35:07;;;;;;;5.45;3.03;;;27.00;76.10;;;;;;5050764;28;20051;-73
2021/08/16 09:37:35;;;;;;;3.90;2.40;;;27.20;73.00;;;;;;5052027;28;20595;-72
2021/08/16 09:40:05;;;;;;;4.30;3.90;;;27.30;71.70;;;;;;5051620;28;20080;-72
2021/08/16 09:42:45;;;;;;;3.28;2.80;;;27.10;74.00;;;;;;5033930;28;20132;-77
2021/08/16 09:45:13;;;;;;;4.00;2.60;;;27.20;75.40;;;;;;5034440;28;20387;-74
2021/08/16 09:47:42;;;;;;;5.13;3.08;;;26.90;74.30;;;;;;5031386;28;20049;-74
2021/08/16 09:50:10;;;;;;;6.13;3.13;;;27.00;74.90;;;;;;5043922;28;20102;-70
2021/08/16 09:52:37;;;;;;;3.85;2.75;;;27.20;75.60;;;;;;5051663;28;20059;-70
2021/08/16 09:55:05;;;;;;;3.97;3.58;;;27.30;74.40;;;;;;5036996;28;20350;-72
2021/08/16 09:57:33;;;;;;;5.38;4.20;;;27.00;74.50;;;;;;5034142;28;20049;-68
2021/08/16 10:00:01;;;;;;;3.30;2.90;;;27.40;74.40;;;;;;5050889;28;20051;-69
2021/08/16 10:02:28;;;;;;;5.15;4.07;;;28.50;73.90;;;;;;5051436;28;20496;-69
2021/08/16 10:04:57;;;;;;;5.38;3.85;;;29.80;69.00;;;;;;5051236;28;20527;-69
2021/08/16 10:07:28;;;;;;;3.05;2.60;;;30.50;65.80;;;;;;5051253;28;20049;-69
2021/08/16 10:09:57;;;;;;;3.10;2.67;;;30.00;65.20;;;;;;5049451;28;20528;-68
2021/08/16 10:12:24;;;;;;;4.55;3.22;;;30.00;63.90;;;;;;5034304;28;20049;-68
2021/08/16 10:14:52;;;;;;;3.50;3.13;;;29.40;65.20;;;;;;5047311;28;20060;-68
2021/08/16 10:17:24;;;;;;;4.80;3.17;;;28.80;67.10;;;;;;5031525;28;20734;-69
2021/08/16 10:19:52;;;;;;;4.15;2.78;;;28.50;67.30;;;;;;5030953;28;20081;-69
2021/08/16 10:22:19;;;;;;;4.22;3.83;;;27.60;68.30;;;;;;5033693;28;20054;-68
2021/08/16 10:24:46;;;;;;;7.72;3.65;;;27.10;70.50;;;;;;5039851;28;20049;-70
2021/08/16 10:27:13;;;;;;;7.15;4.90;;;26.80;72.10;;;;;;5052245;28;20071;-70
2021/08/16 10:29:42;;;;;;;5.03;3.65;;;27.10;71.80;;;;;;5054248;28;20045;-70
2021/08/16 10:32:09;;;;;;;5.68;2.97;;;26.90;69.60;;;;;;5054645;28;20049;-70
2021/08/16 10:34:39;;;;;;;3.85;3.55;;;27.00;70.80;;;;;;5054939;28;20052;-70
2021/08/16 10:37:09;;;;;;;10.57;3.63;;;27.10;70.10;;;;;;5054354;28;20049;-68
2021/08/16 10:39:38;;;;;;;4.35;3.13;;;26.90;70.30;;;;;;5053551;28;20049;-69
2021/08/16 10:42:07;;;;;;;2.88;2.60;;;27.40;69.90;;;;;;5054643;28;20409;-73
2021/08/16 10:44:43;;;;;;;3.53;3.13;;;28.10;67.10;;;;;;5054933;28;20049;-69
2021/08/16 10:47:10;;;;;;;5.82;3.42;;;28.80;63.70;;;;;;5054426;28;20049;-68
2021/08/16 10:49:40;;;;;;;2.35;2.15;;;28.70;64.90;;;;;;5059046;28;20052;-69
2021/08/16 10:52:19;;;;;;;4.88;3.42;;;29.10;63.70;;;;;;5054067;28;20045;-70
2021/08/16 10:54:46;;;;;;;3.50;2.50;;;30.40;62.20;;;;;;5054416;28;20432;-69
2021/08/16 10:57:13;;;;;;;4.15;2.90;;;30.80;59.60;;;;;;5054776;28;20080;-69
2021/08/16 10:59:39;;;;;;;3.15;2.50;;;29.50;59.00;;;;;;5053827;28;20056;-69
2021/08/16 11:02:06;;;;;;;2.40;2.20;;;28.50;60.80;;;;;;5054106;28;20041;-70
2021/08/16 11:04:34;;;;;;;3.67;2.53;;;27.90;63.50;;;;;;5054003;28;20194;-72
2021/08/16 11:07:04;;;;;;;3.38;2.53;;;28.30;62.20;;;;;;5049462;28;20048;-68
2021/08/16 11:09:33;;;;;;;2.90;2.63;;;27.90;61.10;;;;;;5053622;28;20459;-71
2021/08/16 11:12:04;;;;;;;3.28;2.97;;;27.30;61.70;;;;;;5054220;28;20111;-69
2021/08/16 11:14:33;;;;;;;3.42;2.80;;;27.70;65.40;;;;;;5053519;28;20139;-68
2021/08/16 11:17:00;;;;;;;3.45;3.15;;;28.60;61.20;;;;;;5037113;28;20111;-71
2021/08/16 11:19:28;;;;;;;3.85;2.72;;;28.60;60.80;;;;;;5041740;28;20036;-66
2021/08/16 11:22:00;;;;;;;4.80;3.33;;;27.70;61.00;;;;;;5044905;28;20044;-67
2021/08/16 11:24:30;;;;;;;3.90;3.00;;;26.80;63.30;;;;;;5048939;28;20091;-70
2021/08/16 11:26:57;;;;;;;3.75;3.45;;;26.50;66.30;;;;;;5040493;28;20041;-68
2021/08/16 11:29:27;;;;;;;6.20;2.78;;;26.30;65.70;;;;;;5033435;28;20053;-67
2021/08/16 11:31:58;;;;;;;3.97;2.25;;;26.20;66.60;;;;;;5053373;28;20114;-67
2021/08/16 11:34:25;;;;;;;3.20;2.90;;;25.80;65.90;;;;;;5053890;28;20128;-72
2021/08/16 11:36:52;;;;;;;4.47;3.00;;;25.40;68.20;;;;;;5052497;28;20040;-71
2021/08/16 11:39:29;;;;;;;4.25;3.38;;;25.50;68.10;;;;;;5052826;28;20395;-69
2021/08/16 11:41:59;;;;;;;2.83;2.30;;;25.80;68.50;;;;;;5054145;28;20044;-69
2021/08/16 11:44:27;;;;;;;4.20;3.55;;;26.60;65.80;;;;;;5053327;28;20170;-71
2021/08/16 11:46:53;;;;;;;2.90;2.50;;;27.20;64.00;;;;;;5053924;28;20091;-71
2021/08/16 11:49:20;;;;;;;4.43;2.95;;;27.90;62.70;;;;;;5053890;28;20493;-78
2021/08/16 11:51:47;;;;;;;3.75;2.58;;;28.50;61.50;;;;;;5052982;28;20134;-77
2021/08/16 11:54:25;;;;;;;6.15;3.10;;;28.60;61.40;;;;;;5053579;28;20053;-72
2021/08/16 11:56:54;;;;;;;2.90;2.70;;;29.30;61.20;;;;;;5053285;28;20041;-68
2021/08/16 11:59:21;;;;;;;3.33;2.65;;;29.50;59.10;;;;;;5052901;28;20464;-69
2021/08/16 12:01:48;;;;;;;2.70;2.47;;;29.20;60.00;;;;;;5052964;28;20502;-70
2021/08/16 12:04:15;;;;;;;3.28;2.55;;;28.50;59.70;;;;;;5052521;28;20444;-71
2021/08/16 12:06:43;;;;;;;5.47;2.55;;;28.10;60.40;;;;;;5054611;28;20049;-70
2021/08/16 12:09:10;;;;;;;4.38;2.92;;;27.50;60.70;;;;;;5052448;28;20076;-71
2021/08/16 12:11:37;;;;;;;2.47;1.90;;;27.20;60.20;;;;;;5052938;28;20053;-71
2021/08/16 12:14:06;;;;;;;2.20;2.00;;;27.10;60.60;;;;;;5053000;28;20049;-73
2021/08/16 12:16:34;;;;;;;2.75;2.05;;;28.40;59.50;;;;;;5052553;28;20076;-73
2021/08/16 12:19:01;;;;;;;3.47;1.90;;;29.10;57.00;;;;;;5052352;28;20049;-74
2021/08/16 12:21:28;;;;;;;3.47;1.85;;;29.70;57.10;;;;;;5050674;28;20107;-69
2021/08/16 12:23:57;;;;;;;2.35;2.15;;;29.70;54.70;;;;;;5051690;28;20471;-70
2021/08/16 12:26:32;;;;;;;2.17;1.88;;;28.40;56.60;;;;;;5052460;28;20452;-69
2021/08/16 12:28:58;;;;;;;2.67;1.80;;;28.30;58.40;;;;;;5052400;28;20049;-68
2021/08/16 12:31:29;;;;;;;2.85;2.20;;;28.40;58.50;;;;;;5052295;28;20083;-68
2021/08/16 12:33:58;;;;;;;3.05;2.22;;;28.70;56.70;;;;;;5052660;28;20056;-70
2021/08/16 12:36:26;;;;;;;3.13;1.95;;;28.00;57.60;;;;;;5052389;28;20041;-72
2021/08/16 12:38:58;;;;;;;2.55;1.95;;;27.90;59.70;;;;;;5052121;28;20079;-70
2021/08/16 12:41:26;;;;;;;2.25;1.92;;;27.90;59.40;;;;;;5052295;28;20517;-71
2021/08/16 12:43:54;;;;;;;1.80;1.70;;;27.10;59.90;;;;;;5052244;28;20551;-69
2021/08/16 12:46:57;;;;;;;3.95;2.35;;;26.80;62.00;;;;;;5051941;28;20053;-67
2021/08/16 12:49:24;;;;;;;4.85;2.53;;;27.00;62.80;;;;;;5050269;28;20463;-71